sim
Sign-in with your pilot id or email,
or register
Callsign
Passwort

Schedule Details

Flight Number: DLH2320
Departure: Munich Airport (EDDM) at 14:35
Arrival: Luxembourg Findel Airport (ELLX) at 15:40
Route: Lufthansa Passenger Schedule. Enter filed route here before submitting Pirep.

Weather Information
Getting current METAR information for EDDM 190150Z 04004KT CAVOK 07/05 Q1021 NOSIG
Getting current METAR information for ELLX 190150Z AUTO 06009KT 9999 NCD 14/08 Q1019 NOSIG

Schedule Frequency

Route Map